Terminal Aerodrome Forecast
Issued by NWS

Home | Current Version | Previous Version | Text Only | Print | Product List | Glossary On
Versions: 1 2 3 4 5 6 7 8 9 10 11 12 13 14 15
000
FTAK31 PAJN 241315 AAA
TAFAKT
TAF AMD
PAKT 241315Z 2413/2512 14008KT P6SM VCSH SCT025 OVC050
      TEMPO 2413/2417 -SHRA BKN025 OVC050
     FM241700 13007KT P6SM VCSH SCT020 OVC040
     FM242200 13008KT P6SM SCT020 BKN040 BKN060
     FM250700 VRB03KT P6SM FEW010 SCT020 PROB30 2508/2512 2SM -DZ BR
      OVC010=

USA.gov is the U.S. government's official web portal to all federal, state and local government web resources and services.